Nearby METAR Reports

 

EGFF - Cardiff-Wales Ar, United Kingdom
Distance from station: SSW 23km
Updated: 08/12/2019 11:20
Nearby showers, Partly cloudy
Nearby showers, Partly cloudy
 Wind from W
Wind: W 43 km/h, Gust: 67 km/h
Temperature: 10°C
Wind Chill: 6°C
Dew Point: 6°C
Humidity: 76%
Barometer: 1001 hPa
Summary: Nearby Showers
Clouds: Partly cloudy
Visibility: 10 km
Cloud details: Partly cloudy 853 m
Partly cloudy 1036 m
2019/12/08 11:20 EGFF 081120Z 26023G36KT 9999 VCSH SCT028CB SCT034 10/06 Q1001
EGGD - Bristol/Lulsgate, United Kingdom
Distance from station: ESE 43km
Updated: 08/12/2019 11:20
Nearby showers, Partly cloudy
Nearby showers, Partly cloudy
 Wind from WSW
Wind: WSW 33 km/h
Temperature: 8°C
Wind Chill: 3°C
Dew Point: 5°C
Humidity: 82%
Barometer: 1001 hPa
Summary: Nearby Showers
Clouds: Partly cloudy
Visibility: 10 km
Cloud details: Few Clouds 732 m
Partly cloudy 914 m
2019/12/08 11:20 EGGD 081120Z 24018KT 9999 VCSH FEW024CB SCT030 08/05 Q1001
 
EGDY - Yeovilton (navy), United Kingdom
Distance from station: SE 77km
Updated: 08/12/2019 10:50
Partly cloudy
Partly cloudy
 Wind from WSW
Wind: WSW 31 km/h
Temperature: 10°C
Wind Chill: 7°C
Dew Point: 4°C
Humidity: 67%
Barometer: 1003 hPa
Clouds: Partly cloudy
Visibility: 10 km
Cloud details: Partly cloudy 3353 m
2019/12/08 10:50 EGDY 081050Z AUTO 25017KT 9999 SCT110/// 10/04 Q1003
EGTE - Exeter Airport, United Kingdom
Distance from station: S 96km
Updated: 08/12/2019 11:20
Partly cloudy
Partly cloudy
 Wind from WSW
Wind: WSW 44 km/h, Gust: 80 km/h
Temperature: 9°C
Wind Chill: 4°C
Dew Point: 5°C
Humidity: 76%
Barometer: 1004 hPa
Clouds: Partly cloudy
Visibility: 10 km
Cloud details: Partly cloudy 610 m
2019/12/08 11:20 EGTE 081120Z 24024G43KT 210V280 9999 SCT020 09/05 Q1004